Ferry Kyoto II — JI3701 — position and weather

sailwx.info

Track history (hours):
 
Tides and Currents Weather Stations Pressure Air Temp Water Temp Dewpoint Dewpoint Depression Visibility Wind Speed Wind Dir Waves Ship Positions

Ferry Kyoto II

Last reported at 2016-Aug-28 23:32 UTC. Time now 2016-Aug-29 00:13 UTC.
Position N 34°37' E 135°26'.

Length 167 m; draft 5.9 m.

Type: Passenger vessel. MMSI: 431301641.

Date/timePositionNaut miles runAvg speedWind from/ knotsBaromVisibWave heightAir tempDewpointWater temp
2016-Aug-28 23:32N 34°37' E 135°26'0 0.0
2016-Aug-28 22:32N 34°37' E 135°26'0 0.0
2016-Aug-28 21:26N 34°37' E 135°26'0 0.0
2016-Aug-28 20:33N 34°37' E 135°26'1313.3
2016-Aug-28 19:33N 34°35' E 135°10'1818.4
2016-Aug-28 18:33N 34°33' E 134°48'5 0.1
2016-Aug-27 09:31N 34°35' E 134°53'2121.4
2016-Aug-27 08:34N 34°37' E 135°17'7 6.6
2016-Aug-27 07:31N 34°37' E 135°26'0 0.0
2016-Aug-27 06:31N 34°37' E 135°26'0 0.0
2016-Aug-27 04:31N 34°37' E 135°26'0 0.0
2016-Aug-27 03:31N 34°37' E 135°26'0 0.0
2016-Aug-27 02:25N 34°37' E 135°26'0 0.0
2016-Aug-27 01:31N 34°37' E 135°26'0 0.0
2016-Aug-27 00:31N 34°37' E 135°26'0 0.0
2016-Aug-26 23:31N 34°37' E 135°26'0 0.0
2016-Aug-26 22:31N 34°37' E 135°26'0 0.0
2016-Aug-26 21:31N 34°37' E 135°26'0 0.0
2016-Aug-26 20:31N 34°37' E 135°26'1212.3
2016-Aug-26 19:33N 34°35' E 135°12'15 0.4
2016-Aug-25 09:33N 34°36' E 134°54'2019.9
2016-Aug-25 08:33N 34°37' E 135°18'7 6.5
2016-Aug-25 07:32N 34°37' E 135°26'0 0.0
2016-Aug-25 06:26N 34°37' E 135°26'0 0.0
2016-Aug-25 04:26N 34°37' E 135°26'0 0.0
2016-Aug-25 03:26N 34°37' E 135°26'0 0.0
2016-Aug-25 02:32N 34°37' E 135°26'0 0.0
2016-Aug-25 01:20N 34°37' E 135°26'0 0.0
2016-Aug-25 00:32N 34°37' E 135°26'0 0.0
2016-Aug-24 23:32N 34°37' E 135°26'0 0.0
2016-Aug-24 22:32N 34°37' E 135°26'0 0.0
2016-Aug-24 21:32N 34°37' E 135°26'0 0.0
2016-Aug-24 20:33N 34°37' E 135°26'1211.8
2016-Aug-24 19:33N 34°35' E 135°12'14 0.4
2016-Aug-23 09:32N 34°36' E 134°55'1919.5
2016-Aug-23 08:34N 34°37' E 135°18'7 5.6
2016-Aug-23 07:24N 34°37' E 135°26'0 0.0
2016-Aug-23 06:30N 34°37' E 135°26'0 0.0
2016-Aug-23 05:30N 34°37' E 135°26'0 0.0
2016-Aug-23 04:30N 34°37' E 135°26'0 0.0
2016-Aug-23 03:30N 34°37' E 135°26'0 0.0
2016-Aug-23 02:18N 34°37' E 135°26'0 0.0
2016-Aug-23 01:24N 34°37' E 135°26'0 0.0
2016-Aug-23 00:24N 34°37' E 135°26'0 0.0
2016-Aug-22 23:30N 34°37' E 135°26'0 0.0
2016-Aug-22 22:30N 34°37' E 135°26'0 0.0
2016-Aug-22 21:30N 34°37' E 135°26'0 0.0
2016-Aug-22 20:33N 34°37' E 135°26'1111.5
2016-Aug-22 19:34N 34°35' E 135°12'2020.0
2016-Aug-22 18:33N 34°33' E 134°48'4 0.1
2016-Aug-21 09:33N 34°35' E 134°52'2120.7
2016-Aug-21 08:33N 34°36' E 135°17'7 6.4
2016-Aug-21 07:26N 34°37' E 135°26'0 0.0
2016-Aug-21 06:32N 34°37' E 135°26'0 0.0
2016-Aug-21 05:32N 34°37' E 135°26'0 0.0
2016-Aug-21 04:32N 34°37' E 135°26'0 0.0
2016-Aug-21 03:32N 34°37' E 135°26'0 0.0
2016-Aug-21 02:32N 34°37' E 135°26'0 0.0
2016-Aug-21 01:32N 34°37' E 135°26'0 0.0
2016-Aug-21 00:32N 34°37' E 135°26'0 0.0
2016-Aug-20 23:32N 34°37' E 135°26'0 0.0
2016-Aug-20 22:33N 34°37' E 135°26'0 0.0
2016-Aug-20 21:33N 34°37' E 135°26'0 0.0
2016-Aug-20 20:33N 34°37' E 135°26'9 9.4
2016-Aug-20 19:33N 34°35' E 135°15'1918.8
2016-Aug-20 18:33N 34°34' E 134°52'12 0.4
2016-Aug-19 10:27N 34°30' E 134°38'2123.8
2016-Aug-19 09:33N 34°37' E 135°02'1918.7
2016-Aug-19 08:33N 34°37' E 135°24'1 1.0
2016-Aug-19 07:24N 34°37' E 135°26'0 0.0
2016-Aug-19 06:24N 34°37' E 135°26'0 0.0
2016-Aug-19 05:30N 34°37' E 135°26'0 0.0
2016-Aug-19 04:30N 34°37' E 135°26'0 0.0
2016-Aug-19 03:12N 34°37' E 135°26'0 0.0
2016-Aug-19 02:24N 34°37' E 135°26'0 0.0
2016-Aug-19 01:30N 34°37' E 135°26'0 0.0
2016-Aug-19 00:30N 34°37' E 135°26'  
Track history (hours):
 
Tides and Currents Weather Stations Pressure Air Temp Water Temp Dewpoint Dewpoint Depression Visibility Wind Speed Wind Dir Waves Ship Positions

Ferry Kyoto II

Last reported at 2016-Aug-28 23:32 UTC. Time now 2016-Aug-29 00:13 UTC.
Position N 34°37' E 135°26'.

Length 167 m; draft 5.9 m.

Type: Passenger vessel. MMSI: 431301641.

Date/timePositionNaut miles runAvg speedWind from/ knotsBaromVisibWave heightAir tempDewpointWater temp
2016-Aug-28 23:32N 34°37' E 135°26'0 0.0
2016-Aug-28 22:32N 34°37' E 135°26'0 0.0
2016-Aug-28 21:26N 34°37' E 135°26'0 0.0
2016-Aug-28 20:33N 34°37' E 135°26'1313.3
2016-Aug-28 19:33N 34°35' E 135°10'1818.4
2016-Aug-28 18:33N 34°33' E 134°48'5 0.1
2016-Aug-27 09:31N 34°35' E 134°53'2121.4
2016-Aug-27 08:34N 34°37' E 135°17'7 6.6
2016-Aug-27 07:31N 34°37' E 135°26'0 0.0
2016-Aug-27 06:31N 34°37' E 135°26'0 0.0
2016-Aug-27 04:31N 34°37' E 135°26'0 0.0
2016-Aug-27 03:31N 34°37' E 135°26'0 0.0
2016-Aug-27 02:25N 34°37' E 135°26'0 0.0
2016-Aug-27 01:31N 34°37' E 135°26'0 0.0
2016-Aug-27 00:31N 34°37' E 135°26'0 0.0
2016-Aug-26 23:31N 34°37' E 135°26'0 0.0
2016-Aug-26 22:31N 34°37' E 135°26'0 0.0
2016-Aug-26 21:31N 34°37' E 135°26'0 0.0
2016-Aug-26 20:31N 34°37' E 135°26'1212.3
2016-Aug-26 19:33N 34°35' E 135°12'15 0.4
2016-Aug-25 09:33N 34°36' E 134°54'2019.9
2016-Aug-25 08:33N 34°37' E 135°18'7 6.5
2016-Aug-25 07:32N 34°37' E 135°26'0 0.0
2016-Aug-25 06:26N 34°37' E 135°26'0 0.0
2016-Aug-25 04:26N 34°37' E 135°26'0 0.0
2016-Aug-25 03:26N 34°37' E 135°26'0 0.0
2016-Aug-25 02:32N 34°37' E 135°26'0 0.0
2016-Aug-25 01:20N 34°37' E 135°26'0 0.0
2016-Aug-25 00:32N 34°37' E 135°26'0 0.0
2016-Aug-24 23:32N 34°37' E 135°26'0 0.0
2016-Aug-24 22:32N 34°37' E 135°26'0 0.0
2016-Aug-24 21:32N 34°37' E 135°26'0 0.0
2016-Aug-24 20:33N 34°37' E 135°26'1211.8
2016-Aug-24 19:33N 34°35' E 135°12'14 0.4
2016-Aug-23 09:32N 34°36' E 134°55'1919.5
2016-Aug-23 08:34N 34°37' E 135°18'7 5.6
2016-Aug-23 07:24N 34°37' E 135°26'0 0.0
2016-Aug-23 06:30N 34°37' E 135°26'0 0.0
2016-Aug-23 05:30N 34°37' E 135°26'0 0.0
2016-Aug-23 04:30N 34°37' E 135°26'0 0.0
2016-Aug-23 03:30N 34°37' E 135°26'0 0.0
2016-Aug-23 02:18N 34°37' E 135°26'0 0.0
2016-Aug-23 01:24N 34°37' E 135°26'0 0.0
2016-Aug-23 00:24N 34°37' E 135°26'0 0.0
2016-Aug-22 23:30N 34°37' E 135°26'0 0.0
2016-Aug-22 22:30N 34°37' E 135°26'0 0.0
2016-Aug-22 21:30N 34°37' E 135°26'0 0.0
2016-Aug-22 20:33N 34°37' E 135°26'1111.5
2016-Aug-22 19:34N 34°35' E 135°12'2020.0
2016-Aug-22 18:33N 34°33' E 134°48'4 0.1
2016-Aug-21 09:33N 34°35' E 134°52'2120.7
2016-Aug-21 08:33N 34°36' E 135°17'7 6.4
2016-Aug-21 07:26N 34°37' E 135°26'0 0.0
2016-Aug-21 06:32N 34°37' E 135°26'0 0.0
2016-Aug-21 05:32N 34°37' E 135°26'0 0.0
2016-Aug-21 04:32N 34°37' E 135°26'0 0.0
2016-Aug-21 03:32N 34°37' E 135°26'0 0.0
2016-Aug-21 02:32N 34°37' E 135°26'0 0.0
2016-Aug-21 01:32N 34°37' E 135°26'0 0.0
2016-Aug-21 00:32N 34°37' E 135°26'0 0.0
2016-Aug-20 23:32N 34°37' E 135°26'0 0.0
2016-Aug-20 22:33N 34°37' E 135°26'0 0.0
2016-Aug-20 21:33N 34°37' E 135°26'0 0.0
2016-Aug-20 20:33N 34°37' E 135°26'9 9.4
2016-Aug-20 19:33N 34°35' E 135°15'1918.8
2016-Aug-20 18:33N 34°34' E 134°52'12 0.4
2016-Aug-19 10:27N 34°30' E 134°38'2123.8
2016-Aug-19 09:33N 34°37' E 135°02'1918.7
2016-Aug-19 08:33N 34°37' E 135°24'1 1.0
2016-Aug-19 07:24N 34°37' E 135°26'0 0.0
2016-Aug-19 06:24N 34°37' E 135°26'0 0.0
2016-Aug-19 05:30N 34°37' E 135°26'0 0.0
2016-Aug-19 04:30N 34°37' E 135°26'0 0.0
2016-Aug-19 03:12N 34°37' E 135°26'0 0.0
2016-Aug-19 02:24N 34°37' E 135°26'0 0.0
2016-Aug-19 01:30N 34°37' E 135°26'0 0.0
2016-Aug-19 00:30N 34°37' E 135°26'  

Dump ship's entire track history